createdAt,value
2022-12-08T00:00:52.819Z,25.80
2022-12-08T00:03:19.592Z,30.80
2022-12-08T00:06:06.561Z,27.73
2022-12-08T00:08:52.378Z,27.48
2022-12-08T00:11:19.457Z,26.95
2022-12-08T00:13:46.262Z,25.00
2022-12-08T00:16:13.230Z,23.17
2022-12-08T00:18:39.846Z,30.23
2022-12-08T00:21:07.093Z,25.70
2022-12-08T00:23:33.675Z,28.60
2022-12-08T00:26:04.334Z,28.33
2022-12-08T00:28:33.447Z,23.95
2022-12-08T00:31:00.788Z,27.55
2022-12-08T00:33:30.531Z,23.08
2022-12-08T00:35:57.082Z,26.17
2022-12-08T00:38:23.657Z,25.80
2022-12-08T00:40:50.206Z,26.73
2022-12-08T00:43:16.763Z,26.48
2022-12-08T00:45:43.715Z,22.30
2022-12-08T00:48:10.322Z,26.60
2022-12-08T00:50:36.874Z,26.65
2022-12-08T00:53:03.500Z,27.30
2022-12-08T00:55:30.036Z,24.85
2022-12-08T00:57:56.600Z,21.13
2022-12-08T01:00:23.197Z,20.45
2022-12-08T01:02:49.914Z,23.73
2022-12-08T01:05:16.603Z,22.67
2022-12-08T01:07:43.186Z,20.13
2022-12-08T01:10:09.835Z,25.15
2022-12-08T01:12:36.384Z,25.50
2022-12-08T01:15:03.191Z,26.02
2022-12-08T01:17:29.745Z,23.20
2022-12-08T01:19:56.314Z,25.50
2022-12-08T01:22:22.899Z,23.33
2022-12-08T01:24:49.445Z,23.67
2022-12-08T01:27:16.416Z,24.33
2022-12-08T01:29:43.024Z,25.27
2022-12-08T01:32:09.616Z,26.98
2022-12-08T01:34:36.195Z,25.13
2022-12-08T01:37:02.775Z,26.05
2022-12-08T01:39:29.982Z,26.42
2022-12-08T01:41:56.619Z,32.05
2022-12-08T01:44:43.106Z,24.05
2022-12-08T01:47:09.950Z,27.33
2022-12-08T01:49:36.874Z,27.10
2022-12-08T01:52:14.694Z,29.30
2022-12-08T01:54:48.964Z,29.40
2022-12-08T01:57:29.073Z,30.20
2022-12-08T02:00:08.032Z,30.27
2022-12-08T02:02:59.324Z,29.35
2022-12-08T02:05:29.088Z,30.77
2022-12-08T02:07:56.078Z,28.42
2022-12-08T02:10:24.303Z,32.92
2022-12-08T02:12:52.176Z,28.02
2022-12-08T02:15:19.073Z,34.22
2022-12-08T02:18:13.240Z,31.05
2022-12-08T02:20:55.962Z,29.73
2022-12-08T02:23:47.359Z,31.13
2022-12-08T02:26:55.373Z,33.08
2022-12-08T02:32:32.001Z,30.30
2022-12-08T02:35:08.056Z,33.30
2022-12-08T02:37:59.171Z,34.75
2022-12-08T02:40:34.749Z,36.25
2022-12-08T02:43:09.338Z,34.40
2022-12-08T02:45:48.540Z,38.47
2022-12-08T02:48:15.522Z,41.75
2022-12-08T02:50:42.322Z,36.72
2022-12-08T02:55:47.436Z,35.10
2022-12-08T02:58:19.938Z,39.47
2022-12-08T03:00:58.771Z,33.63
2022-12-08T03:03:37.584Z,32.03
2022-12-08T03:06:17.386Z,33.97
2022-12-08T03:09:02.235Z,30.02
2022-12-08T03:11:40.070Z,33.05
2022-12-08T03:14:07.835Z,32.15
2022-12-08T03:16:36.862Z,31.98
2022-12-08T03:19:18.567Z,35.67
2022-12-08T03:21:48.991Z,29.42
2022-12-08T03:24:15.750Z,26.75
2022-12-08T03:26:46.969Z,32.38
2022-12-08T03:29:14.053Z,27.67
2022-12-08T03:31:52.131Z,24.88
2022-12-08T03:34:19.082Z,27.75
2022-12-08T03:36:45.965Z,27.67
2022-12-08T03:39:12.535Z,25.10
2022-12-08T03:41:39.115Z,28.00
2022-12-08T03:44:05.716Z,25.10
2022-12-08T03:46:32.307Z,23.67
2022-12-08T03:48:58.898Z,26.40
2022-12-08T03:51:27.264Z,25.67
2022-12-08T03:53:53.927Z,24.98
2022-12-08T03:56:27.505Z,26.33
2022-12-08T03:58:54.764Z,23.85
2022-12-08T04:01:21.604Z,26.67
2022-12-08T04:03:48.459Z,22.77
2022-12-08T04:06:15.358Z,29.80
2022-12-08T04:08:42.158Z,23.70
2022-12-08T04:11:08.998Z,23.17
2022-12-08T04:13:37.128Z,29.58
2022-12-08T04:16:05.085Z,31.80
2022-12-08T04:18:32.737Z,27.83
2022-12-08T04:20:59.329Z,26.90
2022-12-08T04:23:25.904Z,25.10
2022-12-08T04:25:52.992Z,26.45
2022-12-08T04:28:19.917Z,24.40
2022-12-08T04:30:48.477Z,25.42
2022-12-08T04:33:15.081Z,21.67
2022-12-08T04:35:41.686Z,21.20
2022-12-08T04:38:08.277Z,20.02
2022-12-08T04:40:34.868Z,26.05
2022-12-08T04:43:01.428Z,27.05
2022-12-08T04:45:27.965Z,21.25
2022-12-08T04:47:54.504Z,20.02
2022-12-08T04:50:21.114Z,20.27
2022-12-08T04:52:47.684Z,17.92
2022-12-08T04:55:14.237Z,18.02
2022-12-08T04:57:40.770Z,19.42
2022-12-08T05:00:08.137Z,18.02
2022-12-08T05:02:34.884Z,17.05
2022-12-08T05:05:01.526Z,17.52
2022-12-08T05:07:28.166Z,16.55
2022-12-08T05:09:54.715Z,17.90
2022-12-08T05:12:21.467Z,20.27
2022-12-08T05:14:48.381Z,19.75
2022-12-08T05:17:16.241Z,18.27
2022-12-08T05:19:42.903Z,18.27
2022-12-08T05:22:09.499Z,20.38
2022-12-08T05:24:36.103Z,18.25
2022-12-08T05:27:02.875Z,20.98
2022-12-08T05:29:29.956Z,22.30
2022-12-08T05:31:56.598Z,22.13
2022-12-08T05:34:23.295Z,22.80
2022-12-08T05:36:49.842Z,23.05
2022-12-08T05:39:16.390Z,22.10
2022-12-08T05:41:42.927Z,20.90
2022-12-08T05:44:09.514Z,24.08
2022-12-08T05:46:36.321Z,23.77
2022-12-08T05:49:03.957Z,22.23
2022-12-08T05:51:30.660Z,25.48
2022-12-08T05:53:57.446Z,24.08
2022-12-08T05:56:24.330Z,23.95
2022-12-08T05:58:51.154Z,26.92
2022-12-08T06:01:44.219Z,25.38
2022-12-08T06:04:10.859Z,28.40
2022-12-08T06:06:38.534Z,28.98
2022-12-08T06:09:06.085Z,25.23
2022-12-08T06:11:33.189Z,28.10
2022-12-08T06:14:00.230Z,28.35
2022-12-08T06:16:27.956Z,25.65
2022-12-08T06:18:55.355Z,27.73
2022-12-08T06:21:21.972Z,29.33
2022-12-08T06:23:50.203Z,24.15
2022-12-08T06:26:17.271Z,29.55
2022-12-08T06:28:44.027Z,21.80
2022-12-08T06:31:18.820Z,24.30
2022-12-08T06:33:45.670Z,24.35
2022-12-08T06:36:13.855Z,26.17
2022-12-08T06:38:43.626Z,26.40
2022-12-08T06:41:11.430Z,25.90
2022-12-08T06:43:38.302Z,27.05
2022-12-08T06:46:10.525Z,23.98
2022-12-08T06:48:37.202Z,24.35
2022-12-08T06:51:08.105Z,25.42
2022-12-08T06:53:34.834Z,26.05
2022-12-08T06:56:01.402Z,24.58
2022-12-08T06:58:27.996Z,29.02
2022-12-08T07:00:54.798Z,27.35
2022-12-08T07:03:21.593Z,27.45
2022-12-08T07:05:48.238Z,26.80
2022-12-08T07:08:14.948Z,27.77
2022-12-08T07:10:41.603Z,27.08
2022-12-08T07:13:08.155Z,30.15
2022-12-08T07:15:34.723Z,26.40
2022-12-08T07:18:01.262Z,27.40
2022-12-08T07:20:28.035Z,28.17
2022-12-08T07:22:54.794Z,26.00
2022-12-08T07:25:21.691Z,25.50
2022-12-08T07:27:50.051Z,23.25
2022-12-08T07:30:16.853Z,24.55
2022-12-08T07:32:43.449Z,24.50
2022-12-08T07:35:10.167Z,23.42
2022-12-08T07:37:37.592Z,20.67
2022-12-08T07:40:06.297Z,24.17
2022-12-08T07:42:33.347Z,24.35
2022-12-08T07:45:00.656Z,24.10
2022-12-08T07:47:27.237Z,25.60
2022-12-08T07:49:53.821Z,22.15
2022-12-08T07:52:20.473Z,24.65
2022-12-08T07:54:47.418Z,24.80
2022-12-08T07:57:14.156Z,22.48
2022-12-08T07:59:40.796Z,22.17
2022-12-08T08:02:24.277Z,23.10
2022-12-08T08:04:52.317Z,23.95
2022-12-08T08:07:19.803Z,20.63
2022-12-08T08:09:46.424Z,20.15
2022-12-08T08:15:04.781Z,18.95
2022-12-08T08:17:31.527Z,20.33
2022-12-08T08:19:58.198Z,18.95
2022-12-08T08:22:25.642Z,20.45
2022-12-08T08:24:52.586Z,19.00
2022-12-08T08:27:19.507Z,21.00
2022-12-08T08:29:46.063Z,20.20
2022-12-08T08:32:12.900Z,19.13
2022-12-08T08:34:39.439Z,19.38
2022-12-08T08:37:06.073Z,20.73
2022-12-08T08:39:32.834Z,21.17
2022-12-08T08:41:59.436Z,19.42
2022-12-08T08:44:26.198Z,17.92
2022-12-08T08:46:53.043Z,20.10
2022-12-08T08:49:20.129Z,24.48
2022-12-08T08:51:46.825Z,20.02
2022-12-08T08:54:13.423Z,21.77
2022-12-08T08:56:39.966Z,23.95
2022-12-08T08:59:06.578Z,18.83
2022-12-08T09:01:34.094Z,26.65
2022-12-08T09:04:01.528Z,26.83
2022-12-08T09:06:28.701Z,26.20
2022-12-08T09:08:55.562Z,26.70
2022-12-08T09:11:23.560Z,26.50
2022-12-08T09:13:51.304Z,24.45
2022-12-08T09:16:19.273Z,22.30
2022-12-08T09:18:46.394Z,20.67
2022-12-08T09:21:16.489Z,19.33
2022-12-08T09:23:44.099Z,21.98
2022-12-08T09:26:10.760Z,18.27
2022-12-08T09:28:37.850Z,20.88
2022-12-08T09:31:04.886Z,18.33
2022-12-08T09:33:31.845Z,20.92
2022-12-08T09:36:02.805Z,21.48
2022-12-08T09:38:29.519Z,18.35
2022-12-08T09:40:56.218Z,20.98
2022-12-08T09:43:51.616Z,19.23
2022-12-08T09:46:19.255Z,21.00
2022-12-08T09:48:55.927Z,22.92
2022-12-08T09:51:27.812Z,23.50
2022-12-08T09:54:07.707Z,21.35
2022-12-08T09:56:36.704Z,20.80
2022-12-08T09:59:27.066Z,20.83
2022-12-08T10:01:54.988Z,19.50
2022-12-08T10:04:32.747Z,24.17
2022-12-08T10:07:07.514Z,21.83
2022-12-08T10:09:40.062Z,20.25
2022-12-08T10:12:15.013Z,19.90
2022-12-08T10:14:44.108Z,21.50
2022-12-08T10:17:23.262Z,18.52
2022-12-08T10:19:51.873Z,19.30
2022-12-08T10:22:24.814Z,19.13
2022-12-08T10:24:58.944Z,16.50
2022-12-08T10:27:26.185Z,14.35
2022-12-08T10:29:54.132Z,14.52
2022-12-08T10:32:23.475Z,14.43
2022-12-08T10:35:12.160Z,17.85
2022-12-08T10:37:39.011Z,18.02
2022-12-08T10:40:08.585Z,16.67
2022-12-08T10:42:47.432Z,22.90
2022-12-08T10:45:33.834Z,21.08
2022-12-08T10:48:06.395Z,20.92
2022-12-08T10:50:36.722Z,19.67
2022-12-08T10:53:09.080Z,20.17
2022-12-08T10:55:44.473Z,18.80
2022-12-08T10:58:46.592Z,19.40
2022-12-08T11:01:23.817Z,15.93
2022-12-08T11:04:01.677Z,17.15
2022-12-08T11:06:41.075Z,15.27
2022-12-08T11:09:22.503Z,19.63
2022-12-08T11:11:59.354Z,16.20
2022-12-08T11:14:28.944Z,17.30
2022-12-08T11:17:03.632Z,19.10
2022-12-08T11:19:30.202Z,14.88
2022-12-08T11:21:56.747Z,14.77
2022-12-08T11:24:32.310Z,14.35
2022-12-08T11:27:04.918Z,13.07
2022-12-08T11:29:33.323Z,14.30
2022-12-08T11:32:03.240Z,16.08
2022-12-08T11:34:37.603Z,13.93
2022-12-08T11:37:05.732Z,14.95
2022-12-08T11:39:35.183Z,14.23
2022-12-08T11:42:03.890Z,13.27
2022-12-08T11:44:44.676Z,12.82
2022-12-08T11:47:25.130Z,15.25
2022-12-08T11:49:56.877Z,11.10
2022-12-08T11:52:27.763Z,13.30
2022-12-08T11:55:05.745Z,12.20
2022-12-08T11:57:32.495Z,13.45
2022-12-08T11:59:59.978Z,13.48
2022-12-08T12:02:29.883Z,11.48
2022-12-08T12:05:05.727Z,11.15
2022-12-08T12:07:50.727Z,15.43
2022-12-08T12:10:38.951Z,12.15
2022-12-08T12:13:10.130Z,11.23
2022-12-08T12:16:14.366Z,11.10
2022-12-08T12:18:56.570Z,13.80
2022-12-08T12:21:39.570Z,10.70
2022-12-08T12:24:09.326Z,12.10
2022-12-08T12:26:38.481Z,11.38
2022-12-08T12:29:06.201Z,11.00
2022-12-08T12:31:41.428Z,10.48
2022-12-08T12:34:14.719Z,8.32
2022-12-08T12:36:56.134Z,7.35
2022-12-08T12:39:26.384Z,6.38
2022-12-08T12:41:56.406Z,9.10
2022-12-08T12:44:28.933Z,7.00
2022-12-08T12:46:58.392Z,7.75
2022-12-08T12:49:40.414Z,6.55
2022-12-08T12:52:10.244Z,6.50
2022-12-08T12:54:36.836Z,6.95
2022-12-08T12:57:09.519Z,10.05
2022-12-08T12:59:55.194Z,6.95
2022-12-08T13:02:31.886Z,7.28
2022-12-08T13:05:07.531Z,8.00
2022-12-08T13:07:37.112Z,7.22
2022-12-08T13:10:26.925Z,9.55
2022-12-08T13:13:16.458Z,7.57
2022-12-08T13:15:56.385Z,4.90
2022-12-08T13:18:47.760Z,9.15
2022-12-08T13:21:17.175Z,7.22
2022-12-08T13:24:05.490Z,10.25
2022-12-08T13:28:58.830Z,6.75
2022-12-08T13:31:54.904Z,5.90
2022-12-08T13:34:41.667Z,6.85
2022-12-08T13:37:11.093Z,7.28
2022-12-08T13:39:40.716Z,8.13
2022-12-08T13:42:15.945Z,6.22
2022-12-08T13:48:30.255Z,7.78
2022-12-08T13:57:29.754Z,7.28
2022-12-08T14:00:01.508Z,10.65
2022-12-08T14:02:46.853Z,10.93
2022-12-08T14:05:19.784Z,8.95
2022-12-08T14:07:53.716Z,6.07
2022-12-08T14:10:23.927Z,7.82
2022-12-08T14:13:02.449Z,8.13
2022-12-08T14:15:37.145Z,8.20
2022-12-08T14:18:05.727Z,8.00
2022-12-08T14:20:51.960Z,8.85
2022-12-08T14:23:20.840Z,9.68
2022-12-08T14:25:48.078Z,8.95
2022-12-08T14:28:14.656Z,9.18
2022-12-08T14:30:41.314Z,10.27
2022-12-08T14:33:15.134Z,8.90
2022-12-08T14:35:41.704Z,10.13
2022-12-08T14:38:19.752Z,8.35
2022-12-08T14:40:49.197Z,12.98
2022-12-08T14:43:18.895Z,9.98
2022-12-08T14:45:45.383Z,10.23
2022-12-08T14:48:28.139Z,11.43
2022-12-08T14:51:01.974Z,8.40
2022-12-08T14:53:44.006Z,8.75
2022-12-08T14:56:26.301Z,8.52
2022-12-08T14:59:33.274Z,8.55
2022-12-08T15:02:24.570Z,7.32
2022-12-08T15:05:16.119Z,8.63
2022-12-08T15:07:51.836Z,7.38
2022-12-08T15:10:27.274Z,6.72
2022-12-08T15:12:59.157Z,7.57
2022-12-08T15:15:26.406Z,7.70
2022-12-08T15:18:19.288Z,6.68
2022-12-08T15:20:51.718Z,7.15
2022-12-08T15:23:22.611Z,7.28
2022-12-08T15:25:49.680Z,7.75
2022-12-08T15:28:18.911Z,10.35
2022-12-08T15:30:46.416Z,7.80
2022-12-08T15:33:13.296Z,9.40
2022-12-08T15:35:41.162Z,9.05
2022-12-08T15:38:25.995Z,7.75
2022-12-08T15:40:54.492Z,9.13
2022-12-08T15:45:58.541Z,8.52
2022-12-08T15:48:28.481Z,8.65
2022-12-08T15:50:56.221Z,7.30
2022-12-08T15:53:23.116Z,7.75
2022-12-08T15:56:18.815Z,7.75
2022-12-08T15:58:53.761Z,9.87
2022-12-08T16:01:21.861Z,8.95
2022-12-08T16:09:30.036Z,15.63
2022-12-08T16:12:15.459Z,10.55
2022-12-08T16:17:30.978Z,13.38
2022-12-08T16:19:57.608Z,10.43
2022-12-08T16:22:52.852Z,10.25
2022-12-08T16:25:19.364Z,11.20
2022-12-08T16:30:34.765Z,10.18
2022-12-08T16:33:01.780Z,9.95
2022-12-08T16:35:28.666Z,13.02
2022-12-08T16:37:55.647Z,10.00
2022-12-08T16:40:22.644Z,10.02
2022-12-08T16:42:50.318Z,10.82
2022-12-08T16:45:28.676Z,10.60
2022-12-08T16:47:57.244Z,10.55
2022-12-08T16:53:14.459Z,11.32
2022-12-08T16:55:41.216Z,10.68
2022-12-08T16:58:07.828Z,8.57
2022-12-08T17:00:37.626Z,8.85
2022-12-08T17:03:05.130Z,10.48
2022-12-08T17:05:31.800Z,10.88
2022-12-08T17:07:59.090Z,11.77
2022-12-08T17:10:28.498Z,16.05
2022-12-08T17:12:55.704Z,15.13
2022-12-08T17:15:24.353Z,17.02
2022-12-08T17:17:51.728Z,18.48
2022-12-08T17:20:24.370Z,13.32
2022-12-08T17:22:53.911Z,12.73
2022-12-08T17:25:20.445Z,16.38
2022-12-08T17:27:47.025Z,15.00
2022-12-08T17:30:15.755Z,18.73
2022-12-08T17:32:43.058Z,17.55
2022-12-08T17:35:10.198Z,12.40
2022-12-08T17:37:36.835Z,17.60
2022-12-08T17:40:04.482Z,14.85
2022-12-08T17:42:33.307Z,17.95
2022-12-08T17:47:26.344Z,17.52
2022-12-08T17:49:53.015Z,16.50
2022-12-08T17:52:19.675Z,14.07
2022-12-08T17:54:46.211Z,11.35
2022-12-08T17:57:12.759Z,13.98
2022-12-08T17:59:39.347Z,15.57
2022-12-08T18:02:07.164Z,19.05
2022-12-08T18:04:33.825Z,19.67
2022-12-08T18:07:01.424Z,16.10
2022-12-08T18:09:30.932Z,14.52
2022-12-08T18:11:57.582Z,13.57
2022-12-08T18:14:25.326Z,15.75
2022-12-08T18:16:52.146Z,16.98
2022-12-08T18:19:18.824Z,16.05
2022-12-08T18:21:45.559Z,13.02
2022-12-08T18:24:19.034Z,12.70
2022-12-08T18:26:45.857Z,15.10
2022-12-08T18:29:12.463Z,14.45
2022-12-08T18:31:39.084Z,15.93
2022-12-08T18:34:05.622Z,14.52
2022-12-08T18:36:32.181Z,16.48
2022-12-08T18:38:58.731Z,15.88
2022-12-08T18:41:26.110Z,18.77
2022-12-08T18:43:53.829Z,75.57
2022-12-08T18:46:21.877Z,19.37
2022-12-08T18:48:50.256Z,19.45
2022-12-08T18:51:19.226Z,20.10
2022-12-08T18:53:46.375Z,32.20
2022-12-08T18:56:28.379Z,29.27
2022-12-08T18:59:01.268Z,19.90
2022-12-08T19:01:30.411Z,18.17
2022-12-08T19:06:48.242Z,18.30
2022-12-08T19:09:15.814Z,15.77
2022-12-08T19:11:42.924Z,14.83
2022-12-08T19:14:09.695Z,13.60
2022-12-08T19:16:36.751Z,15.88
2022-12-08T19:19:04.430Z,13.48
2022-12-08T19:21:31.887Z,20.67
2022-12-08T19:23:58.669Z,17.88
2022-12-08T19:26:26.784Z,15.88
2022-12-08T19:28:53.580Z,15.60
2022-12-08T19:31:21.510Z,13.75
2022-12-08T19:33:48.120Z,15.02
2022-12-08T19:36:17.850Z,14.68
2022-12-08T19:39:02.989Z,13.63
2022-12-08T19:41:48.187Z,13.75
2022-12-08T19:44:46.685Z,20.02
2022-12-08T19:47:14.138Z,18.15
2022-12-08T19:49:40.958Z,17.63
2022-12-08T19:52:07.768Z,16.60
2022-12-08T19:54:34.666Z,16.58
2022-12-08T19:57:01.374Z,18.42
2022-12-08T19:59:30.060Z,17.60
2022-12-08T20:01:57.947Z,14.45
2022-12-08T20:04:26.476Z,18.63
2022-12-08T20:09:20.897Z,14.67
2022-12-08T20:11:47.487Z,19.20
2022-12-08T20:14:14.084Z,15.55
2022-12-08T20:16:41.883Z,15.52
2022-12-08T20:19:09.513Z,19.13
2022-12-08T20:21:36.099Z,22.83
2022-12-08T20:24:04.634Z,20.17
2022-12-08T20:26:31.292Z,16.52
2022-12-08T20:28:57.943Z,17.02
2022-12-08T20:31:26.608Z,22.20
2022-12-08T20:33:53.381Z,22.23
2022-12-08T20:36:21.102Z,22.80
2022-12-08T20:38:49.526Z,21.15
2022-12-08T20:43:47.086Z,18.10
2022-12-08T20:46:16.092Z,18.65
2022-12-08T20:48:43.638Z,18.98
2022-12-08T20:51:20.007Z,19.23
2022-12-08T20:53:46.764Z,15.45
2022-12-08T20:56:15.518Z,19.83
2022-12-08T20:58:42.866Z,19.98
2022-12-08T21:01:14.314Z,21.95
2022-12-08T21:03:41.770Z,18.65
2022-12-08T21:06:09.255Z,16.85
2022-12-08T21:08:36.303Z,16.15
2022-12-08T21:11:03.217Z,14.73
2022-12-08T21:13:30.098Z,17.65
2022-12-08T21:15:56.796Z,23.13
2022-12-08T21:18:24.113Z,17.92
2022-12-08T21:20:51.910Z,22.52
2022-12-08T21:23:18.871Z,18.08
2022-12-08T21:25:46.646Z,17.65
2022-12-08T21:28:13.596Z,17.25
2022-12-08T21:30:40.859Z,20.08
2022-12-08T21:33:07.706Z,21.10
2022-12-08T21:35:34.533Z,23.95
2022-12-08T21:38:01.257Z,27.75
2022-12-08T21:40:28.001Z,29.55
2022-12-08T21:42:54.796Z,30.17
2022-12-08T21:45:21.989Z,27.58
2022-12-08T21:47:49.668Z,35.60
2022-12-08T21:50:17.273Z,27.60
2022-12-08T21:52:45.368Z,28.77
2022-12-08T21:55:13.039Z,30.83
2022-12-08T21:57:40.638Z,27.17
2022-12-08T22:00:08.771Z,29.30
2022-12-08T22:05:02.517Z,29.90
2022-12-08T22:07:29.335Z,32.90
2022-12-08T22:09:56.052Z,30.75
2022-12-08T22:12:22.976Z,31.83
2022-12-08T22:14:51.037Z,30.08
2022-12-08T22:17:18.736Z,30.08
2022-12-08T22:19:45.998Z,28.92
2022-12-08T22:22:12.619Z,31.88
2022-12-08T22:24:39.547Z,38.50
2022-12-08T22:27:06.325Z,46.45
2022-12-08T22:29:32.897Z,39.47
2022-12-08T22:31:59.574Z,43.97
2022-12-08T22:34:26.240Z,39.38
2022-12-08T22:36:52.815Z,36.17
2022-12-08T22:39:19.349Z,39.10
2022-12-08T22:41:45.917Z,38.97
2022-12-08T22:44:12.859Z,35.42
2022-12-08T22:46:39.567Z,34.20
2022-12-08T22:49:06.449Z,37.22
2022-12-08T22:51:36.549Z,42.35
2022-12-08T22:54:03.093Z,37.50
2022-12-08T22:56:29.649Z,41.13
2022-12-08T22:58:56.199Z,40.42
2022-12-08T23:01:32.240Z,36.30
2022-12-08T23:04:00.017Z,32.38
2022-12-08T23:06:30.913Z,33.75
2022-12-08T23:08:58.163Z,41.25
2022-12-08T23:11:28.063Z,41.22
2022-12-08T23:13:56.347Z,40.58
2022-12-08T23:16:23.217Z,34.67
2022-12-08T23:18:50.015Z,33.45
2022-12-08T23:21:18.497Z,33.83
2022-12-08T23:26:32.080Z,45.90
2022-12-08T23:28:59.263Z,47.40
2022-12-08T23:31:26.335Z,44.60
2022-12-08T23:33:53.460Z,43.70
2022-12-08T23:36:20.991Z,185.35
2022-12-08T23:38:48.211Z,105.25
2022-12-08T23:41:16.150Z,78.68
2022-12-08T23:43:50.952Z,46.85
2022-12-08T23:46:19.191Z,39.35
2022-12-08T23:48:46.416Z,37.20
2022-12-08T23:51:14.006Z,36.90
2022-12-08T23:53:40.825Z,34.33
2022-12-08T23:56:09.744Z,37.05
2022-12-08T23:58:37.100Z,32.70
